sensor_id;sensor_type;location;lat;lon;timestamp;temperature;humidity
46492;DHT22;32206;51.446;6.792;2022-12-07T00:01:06;5.40;99.90
46492;DHT22;32206;51.446;6.792;2022-12-07T00:03:32;5.40;99.90
46492;DHT22;32206;51.446;6.792;2022-12-07T00:05:58;5.40;99.90
46492;DHT22;32206;51.446;6.792;2022-12-07T00:08:24;5.40;99.90
46492;DHT22;32206;51.446;6.792;2022-12-07T00:10:49;5.40;99.90
46492;DHT22;32206;51.446;6.792;2022-12-07T00:13:15;5.80;99.90
46492;DHT22;32206;51.446;6.792;2022-12-07T00:15:40;5.40;99.90
46492;DHT22;32206;51.446;6.792;2022-12-07T00:18:06;5.30;99.90
46492;DHT22;32206;51.446;6.792;2022-12-07T00:20:32;5.50;99.90
46492;DHT22;32206;51.446;6.792;2022-12-07T00:22:58;5.30;99.90
46492;DHT22;32206;51.446;6.792;2022-12-07T00:25:24;5.40;99.90
46492;DHT22;32206;51.446;6.792;2022-12-07T00:27:49;5.40;99.90
46492;DHT22;32206;51.446;6.792;2022-12-07T00:30:15;5.40;99.90
46492;DHT22;32206;51.446;6.792;2022-12-07T00:32:41;5.40;99.90
46492;DHT22;32206;51.446;6.792;2022-12-07T00:35:06;5.70;99.90
46492;DHT22;32206;51.446;6.792;2022-12-07T00:37:32;5.40;99.90
46492;DHT22;32206;51.446;6.792;2022-12-07T00:39:58;5.30;99.90
46492;DHT22;32206;51.446;6.792;2022-12-07T00:42:23;5.30;99.90
46492;DHT22;32206;51.446;6.792;2022-12-07T00:44:49;5.30;99.90
46492;DHT22;32206;51.446;6.792;2022-12-07T00:47:14;5.30;99.90
46492;DHT22;32206;51.446;6.792;2022-12-07T00:49:40;5.30;99.90
46492;DHT22;32206;51.446;6.792;2022-12-07T00:52:05;5.30;99.90
46492;DHT22;32206;51.446;6.792;2022-12-07T00:54:31;5.30;99.90
46492;DHT22;32206;51.446;6.792;2022-12-07T00:56:57;5.20;99.90
46492;DHT22;32206;51.446;6.792;2022-12-07T00:59:22;5.30;99.90
46492;DHT22;32206;51.446;6.792;2022-12-07T01:01:48;5.30;99.90
46492;DHT22;32206;51.446;6.792;2022-12-07T01:04:13;5.30;99.90
46492;DHT22;32206;51.446;6.792;2022-12-07T01:06:39;5.50;99.90
46492;DHT22;32206;51.446;6.792;2022-12-07T01:09:04;5.30;99.90
46492;DHT22;32206;51.446;6.792;2022-12-07T01:11:31;5.30;99.90
46492;DHT22;32206;51.446;6.792;2022-12-07T01:13:58;5.30;99.90
46492;DHT22;32206;51.446;6.792;2022-12-07T01:16:27;5.30;99.90
46492;DHT22;32206;51.446;6.792;2022-12-07T01:18:54;5.30;99.90
46492;DHT22;32206;51.446;6.792;2022-12-07T01:21:25;5.30;99.90
46492;DHT22;32206;51.446;6.792;2022-12-07T01:23:51;5.30;99.90
46492;DHT22;32206;51.446;6.792;2022-12-07T01:26:19;5.20;99.90
46492;DHT22;32206;51.446;6.792;2022-12-07T01:28:46;5.20;99.90
46492;DHT22;32206;51.446;6.792;2022-12-07T01:31:17;5.20;99.90
46492;DHT22;32206;51.446;6.792;2022-12-07T01:33:46;5.30;99.90
46492;DHT22;32206;51.446;6.792;2022-12-07T01:36:18;5.30;99.90
46492;DHT22;32206;51.446;6.792;2022-12-07T01:38:44;5.50;99.90
46492;DHT22;32206;51.446;6.792;2022-12-07T01:41:11;5.20;99.90
46492;DHT22;32206;51.446;6.792;2022-12-07T01:44:11;5.20;99.90
46492;DHT22;32206;51.446;6.792;2022-12-07T01:46:37;5.30;99.90
46492;DHT22;32206;51.446;6.792;2022-12-07T01:49:05;5.30;99.90
46492;DHT22;32206;51.446;6.792;2022-12-07T01:51:31;5.20;99.90
46492;DHT22;32206;51.446;6.792;2022-12-07T01:53:57;5.70;99.90
46492;DHT22;32206;51.446;6.792;2022-12-07T01:56:26;5.20;99.90
46492;DHT22;32206;51.446;6.792;2022-12-07T01:58:53;5.10;99.90
46492;DHT22;32206;51.446;6.792;2022-12-07T02:01:19;5.20;99.90
46492;DHT22;32206;51.446;6.792;2022-12-07T02:03:46;5.20;99.90
46492;DHT22;32206;51.446;6.792;2022-12-07T02:06:14;5.20;99.90
46492;DHT22;32206;51.446;6.792;2022-12-07T02:08:42;5.20;99.90
46492;DHT22;32206;51.446;6.792;2022-12-07T02:11:08;5.10;99.90
46492;DHT22;32206;51.446;6.792;2022-12-07T02:13:36;5.10;99.90
46492;DHT22;32206;51.446;6.792;2022-12-07T02:24:43;5.00;99.90
46492;DHT22;32206;51.446;6.792;2022-12-07T02:30:04;4.90;99.90
46492;DHT22;32206;51.446;6.792;2022-12-07T02:35:20;4.90;99.90
46492;DHT22;32206;51.446;6.792;2022-12-07T02:40:41;4.90;99.90
46492;DHT22;32206;51.446;6.792;2022-12-07T02:45:47;5.00;99.90
46492;DHT22;32206;51.446;6.792;2022-12-07T02:48:17;4.90;99.90
46492;DHT22;32206;51.446;6.792;2022-12-07T02:50:51;4.90;99.90
46492;DHT22;32206;51.446;6.792;2022-12-07T02:53:34;4.90;99.90
46492;DHT22;32206;51.446;6.792;2022-12-07T03:03:51;4.80;99.90
46492;DHT22;32206;51.446;6.792;2022-12-07T03:06:35;4.70;99.90
46492;DHT22;32206;51.446;6.792;2022-12-07T03:09:13;4.70;99.90
46492;DHT22;32206;51.446;6.792;2022-12-07T03:11:50;4.60;99.90
46492;DHT22;32206;51.446;6.792;2022-12-07T03:16:53;4.50;99.90
46492;DHT22;32206;51.446;6.792;2022-12-07T03:19:22;4.50;99.90
46492;DHT22;32206;51.446;6.792;2022-12-07T03:21:57;4.60;99.90
46492;DHT22;32206;51.446;6.792;2022-12-07T03:24:27;4.60;99.90
46492;DHT22;32206;51.446;6.792;2022-12-07T03:27:34;4.60;99.90
46492;DHT22;32206;51.446;6.792;2022-12-07T03:35:07;4.50;99.90
46492;DHT22;32206;51.446;6.792;2022-12-07T03:38:00;4.40;99.90
46492;DHT22;32206;51.446;6.792;2022-12-07T03:40:48;4.30;99.90
46492;DHT22;32206;51.446;6.792;2022-12-07T03:43:16;4.30;99.90
46492;DHT22;32206;51.446;6.792;2022-12-07T03:45:49;4.30;99.90
46492;DHT22;32206;51.446;6.792;2022-12-07T03:49:14;4.30;99.90
46492;DHT22;32206;51.446;6.792;2022-12-07T03:54:47;4.30;99.90
46492;DHT22;32206;51.446;6.792;2022-12-07T03:57:14;4.30;99.90
46492;DHT22;32206;51.446;6.792;2022-12-07T03:59:40;4.50;99.90
46492;DHT22;32206;51.446;6.792;2022-12-07T04:02:07;4.30;99.90
46492;DHT22;32206;51.446;6.792;2022-12-07T04:04:33;4.30;99.90
46492;DHT22;32206;51.446;6.792;2022-12-07T04:06:59;4.30;99.90
46492;DHT22;32206;51.446;6.792;2022-12-07T04:09:25;4.30;99.90
46492;DHT22;32206;51.446;6.792;2022-12-07T04:11:51;4.40;99.90
46492;DHT22;32206;51.446;6.792;2022-12-07T04:14:16;4.40;99.90
46492;DHT22;32206;51.446;6.792;2022-12-07T04:16:58;4.40;99.90
46492;DHT22;32206;51.446;6.792;2022-12-07T04:19:29;4.40;99.90
46492;DHT22;32206;51.446;6.792;2022-12-07T04:21:56;4.30;99.90
46492;DHT22;32206;51.446;6.792;2022-12-07T04:24:22;4.30;99.90
46492;DHT22;32206;51.446;6.792;2022-12-07T04:26:48;4.30;99.90
46492;DHT22;32206;51.446;6.792;2022-12-07T04:29:14;4.70;99.90
46492;DHT22;32206;51.446;6.792;2022-12-07T04:31:40;4.30;99.90
46492;DHT22;32206;51.446;6.792;2022-12-07T04:34:06;4.20;99.90
46492;DHT22;32206;51.446;6.792;2022-12-07T04:36:33;4.30;99.90
46492;DHT22;32206;51.446;6.792;2022-12-07T04:38:59;4.20;99.90
46492;DHT22;32206;51.446;6.792;2022-12-07T04:41:25;4.30;99.90
46492;DHT22;32206;51.446;6.792;2022-12-07T04:43:58;4.30;99.90
46492;DHT22;32206;51.446;6.792;2022-12-07T04:46:25;4.30;99.90
46492;DHT22;32206;51.446;6.792;2022-12-07T04:48:51;4.30;99.90
46492;DHT22;32206;51.446;6.792;2022-12-07T04:51:23;4.30;99.90
46492;DHT22;32206;51.446;6.792;2022-12-07T04:53:49;4.20;99.90
46492;DHT22;32206;51.446;6.792;2022-12-07T04:56:16;4.30;99.90
46492;DHT22;32206;51.446;6.792;2022-12-07T04:58:43;4.80;99.90
46492;DHT22;32206;51.446;6.792;2022-12-07T05:01:09;4.30;99.90
46492;DHT22;32206;51.446;6.792;2022-12-07T05:03:36;4.30;99.90
46492;DHT22;32206;51.446;6.792;2022-12-07T05:06:01;4.30;99.90
46492;DHT22;32206;51.446;6.792;2022-12-07T05:08:27;4.60;99.90
46492;DHT22;32206;51.446;6.792;2022-12-07T05:10:52;4.30;99.90
46492;DHT22;32206;51.446;6.792;2022-12-07T05:13:18;4.30;99.90
46492;DHT22;32206;51.446;6.792;2022-12-07T05:15:44;4.30;99.90
46492;DHT22;32206;51.446;6.792;2022-12-07T05:18:10;4.30;99.90
46492;DHT22;32206;51.446;6.792;2022-12-07T05:20:38;4.30;99.90
46492;DHT22;32206;51.446;6.792;2022-12-07T05:23:04;4.30;99.90
46492;DHT22;32206;51.446;6.792;2022-12-07T05:25:29;4.30;99.90
46492;DHT22;32206;51.446;6.792;2022-12-07T05:27:56;4.30;99.90
46492;DHT22;32206;51.446;6.792;2022-12-07T05:30:22;4.30;99.90
46492;DHT22;32206;51.446;6.792;2022-12-07T05:32:48;4.30;99.90
46492;DHT22;32206;51.446;6.792;2022-12-07T05:35:14;4.20;99.90
46492;DHT22;32206;51.446;6.792;2022-12-07T05:37:39;4.70;99.90
46492;DHT22;32206;51.446;6.792;2022-12-07T05:40:05;4.30;99.90
46492;DHT22;32206;51.446;6.792;2022-12-07T05:42:31;4.30;99.90
46492;DHT22;32206;51.446;6.792;2022-12-07T05:44:57;4.30;99.90
46492;DHT22;32206;51.446;6.792;2022-12-07T05:47:22;4.30;99.90
46492;DHT22;32206;51.446;6.792;2022-12-07T05:49:48;4.30;99.90
46492;DHT22;32206;51.446;6.792;2022-12-07T05:52:14;4.30;99.90
46492;DHT22;32206;51.446;6.792;2022-12-07T05:54:39;4.30;99.90
46492;DHT22;32206;51.446;6.792;2022-12-07T05:57:05;4.40;99.90
46492;DHT22;32206;51.446;6.792;2022-12-07T05:59:30;4.40;99.90
46492;DHT22;32206;51.446;6.792;2022-12-07T06:02:03;4.40;99.90
46492;DHT22;32206;51.446;6.792;2022-12-07T06:04:31;4.40;99.90
46492;DHT22;32206;51.446;6.792;2022-12-07T06:06:58;4.40;99.90
46492;DHT22;32206;51.446;6.792;2022-12-07T06:09:24;4.40;99.90
46492;DHT22;32206;51.446;6.792;2022-12-07T06:11:50;4.40;99.90
46492;DHT22;32206;51.446;6.792;2022-12-07T06:14:35;4.30;99.90
46492;DHT22;32206;51.446;6.792;2022-12-07T06:17:01;4.40;99.90
46492;DHT22;32206;51.446;6.792;2022-12-07T06:19:27;4.30;99.90
46492;DHT22;32206;51.446;6.792;2022-12-07T06:21:53;4.30;99.90
46492;DHT22;32206;51.446;6.792;2022-12-07T06:24:18;4.30;99.90
46492;DHT22;32206;51.446;6.792;2022-12-07T06:26:45;4.30;99.90
46492;DHT22;32206;51.446;6.792;2022-12-07T06:29:11;4.80;99.90
46492;DHT22;32206;51.446;6.792;2022-12-07T06:31:37;4.60;99.90
46492;DHT22;32206;51.446;6.792;2022-12-07T06:34:05;4.20;99.90
46492;DHT22;32206;51.446;6.792;2022-12-07T06:36:31;4.30;99.90
46492;DHT22;32206;51.446;6.792;2022-12-07T06:38:57;4.30;99.90
46492;DHT22;32206;51.446;6.792;2022-12-07T06:41:23;4.30;99.90
46492;DHT22;32206;51.446;6.792;2022-12-07T06:43:48;4.30;99.90
46492;DHT22;32206;51.446;6.792;2022-12-07T06:46:15;4.30;99.90
46492;DHT22;32206;51.446;6.792;2022-12-07T06:48:41;4.30;99.90
46492;DHT22;32206;51.446;6.792;2022-12-07T06:51:07;4.40;99.90
46492;DHT22;32206;51.446;6.792;2022-12-07T06:53:32;4.30;99.90
46492;DHT22;32206;51.446;6.792;2022-12-07T06:55:58;4.30;99.90
46492;DHT22;32206;51.446;6.792;2022-12-07T06:58:24;4.30;99.90
46492;DHT22;32206;51.446;6.792;2022-12-07T07:00:50;4.40;99.90
46492;DHT22;32206;51.446;6.792;2022-12-07T07:03:16;4.30;99.90
46492;DHT22;32206;51.446;6.792;2022-12-07T07:05:42;4.30;99.90
46492;DHT22;32206;51.446;6.792;2022-12-07T07:08:08;4.30;99.90
46492;DHT22;32206;51.446;6.792;2022-12-07T07:10:34;4.30;99.90
46492;DHT22;32206;51.446;6.792;2022-12-07T07:13:00;4.30;99.90
46492;DHT22;32206;51.446;6.792;2022-12-07T07:15:26;4.30;99.90
46492;DHT22;32206;51.446;6.792;2022-12-07T07:17:51;4.40;99.90
46492;DHT22;32206;51.446;6.792;2022-12-07T07:20:17;4.20;99.90
46492;DHT22;32206;51.446;6.792;2022-12-07T07:22:42;4.20;99.90
46492;DHT22;32206;51.446;6.792;2022-12-07T07:25:08;4.20;99.90
46492;DHT22;32206;51.446;6.792;2022-12-07T07:27:34;4.20;99.90
46492;DHT22;32206;51.446;6.792;2022-12-07T07:29:59;4.20;99.90
46492;DHT22;32206;51.446;6.792;2022-12-07T07:32:25;4.20;99.90
46492;DHT22;32206;51.446;6.792;2022-12-07T07:34:51;4.20;99.90
46492;DHT22;32206;51.446;6.792;2022-12-07T07:37:16;4.20;99.90
46492;DHT22;32206;51.446;6.792;2022-12-07T07:39:42;4.20;99.90
46492;DHT22;32206;51.446;6.792;2022-12-07T07:42:07;4.10;99.90
46492;DHT22;32206;51.446;6.792;2022-12-07T07:44:34;4.10;99.90
46492;DHT22;32206;51.446;6.792;2022-12-07T07:46:59;4.20;99.90
46492;DHT22;32206;51.446;6.792;2022-12-07T07:49:25;4.20;99.90
46492;DHT22;32206;51.446;6.792;2022-12-07T07:51:51;4.20;99.90
46492;DHT22;32206;51.446;6.792;2022-12-07T07:54:17;4.20;99.90
46492;DHT22;32206;51.446;6.792;2022-12-07T07:56:42;4.20;99.90
46492;DHT22;32206;51.446;6.792;2022-12-07T07:59:08;4.20;99.90
46492;DHT22;32206;51.446;6.792;2022-12-07T08:01:34;4.60;99.90
46492;DHT22;32206;51.446;6.792;2022-12-07T08:03:59;4.20;99.90
46492;DHT22;32206;51.446;6.792;2022-12-07T08:06:25;4.20;99.90
46492;DHT22;32206;51.446;6.792;2022-12-07T08:08:51;4.30;99.90
46492;DHT22;32206;51.446;6.792;2022-12-07T08:11:17;4.20;99.90
46492;DHT22;32206;51.446;6.792;2022-12-07T08:13:45;4.20;99.90
46492;DHT22;32206;51.446;6.792;2022-12-07T08:16:12;4.20;99.90
46492;DHT22;32206;51.446;6.792;2022-12-07T08:18:39;4.20;99.90
46492;DHT22;32206;51.446;6.792;2022-12-07T08:21:05;4.20;99.90
46492;DHT22;32206;51.446;6.792;2022-12-07T08:23:32;4.20;99.90
46492;DHT22;32206;51.446;6.792;2022-12-07T08:26:06;4.50;99.90
46492;DHT22;32206;51.446;6.792;2022-12-07T08:28:32;4.10;99.90
46492;DHT22;32206;51.446;6.792;2022-12-07T08:31:02;4.10;99.90
46492;DHT22;32206;51.446;6.792;2022-12-07T08:33:28;4.40;99.90
46492;DHT22;32206;51.446;6.792;2022-12-07T08:35:54;4.10;99.90
46492;DHT22;32206;51.446;6.792;2022-12-07T08:38:20;4.00;99.90
46492;DHT22;32206;51.446;6.792;2022-12-07T08:40:54;4.20;99.90
46492;DHT22;32206;51.446;6.792;2022-12-07T08:43:20;4.00;99.90
46492;DHT22;32206;51.446;6.792;2022-12-07T08:45:48;4.00;99.90
46492;DHT22;32206;51.446;6.792;2022-12-07T08:48:15;4.10;99.90
46492;DHT22;32206;51.446;6.792;2022-12-07T08:50:43;4.50;99.90
46492;DHT22;32206;51.446;6.792;2022-12-07T08:53:09;4.10;99.90
46492;DHT22;32206;51.446;6.792;2022-12-07T08:55:35;4.60;99.90
46492;DHT22;32206;51.446;6.792;2022-12-07T08:58:00;4.20;99.90
46492;DHT22;32206;51.446;6.792;2022-12-07T09:00:27;4.20;99.90
46492;DHT22;32206;51.446;6.792;2022-12-07T09:02:54;4.20;99.90
46492;DHT22;32206;51.446;6.792;2022-12-07T09:05:20;4.20;99.90
46492;DHT22;32206;51.446;6.792;2022-12-07T09:07:49;4.10;99.90
46492;DHT22;32206;51.446;6.792;2022-12-07T09:10:17;4.10;99.90
46492;DHT22;32206;51.446;6.792;2022-12-07T09:12:42;4.60;99.90
46492;DHT22;32206;51.446;6.792;2022-12-07T09:15:08;4.30;99.90
46492;DHT22;32206;51.446;6.792;2022-12-07T09:17:35;4.40;99.90
46492;DHT22;32206;51.446;6.792;2022-12-07T09:20:02;4.80;99.90
46492;DHT22;32206;51.446;6.792;2022-12-07T09:22:31;4.50;99.90
46492;DHT22;32206;51.446;6.792;2022-12-07T09:24:59;4.60;99.90
46492;DHT22;32206;51.446;6.792;2022-12-07T09:27:26;5.10;99.90
46492;DHT22;32206;51.446;6.792;2022-12-07T09:29:52;4.70;99.90
46492;DHT22;32206;51.446;6.792;2022-12-07T09:32:17;4.70;99.90
46492;DHT22;32206;51.446;6.792;2022-12-07T09:34:43;4.80;99.90
46492;DHT22;32206;51.446;6.792;2022-12-07T09:37:09;4.90;99.90
46492;DHT22;32206;51.446;6.792;2022-12-07T09:39:37;4.90;99.90
46492;DHT22;32206;51.446;6.792;2022-12-07T09:42:05;5.00;99.90
46492;DHT22;32206;51.446;6.792;2022-12-07T09:44:32;5.00;99.90
46492;DHT22;32206;51.446;6.792;2022-12-07T09:46:58;5.00;99.90
46492;DHT22;32206;51.446;6.792;2022-12-07T09:49:25;5.10;99.90
46492;DHT22;32206;51.446;6.792;2022-12-07T09:52:02;5.20;99.90
46492;DHT22;32206;51.446;6.792;2022-12-07T09:54:29;5.20;99.90
46492;DHT22;32206;51.446;6.792;2022-12-07T09:56:55;5.30;99.90
46492;DHT22;32206;51.446;6.792;2022-12-07T09:59:21;5.70;99.90
46492;DHT22;32206;51.446;6.792;2022-12-07T10:01:49;5.40;99.90
46492;DHT22;32206;51.446;6.792;2022-12-07T10:04:16;5.50;99.90
46492;DHT22;32206;51.446;6.792;2022-12-07T10:06:42;5.60;99.90
46492;DHT22;32206;51.446;6.792;2022-12-07T10:09:16;5.60;99.90
46492;DHT22;32206;51.446;6.792;2022-12-07T10:14:28;5.80;99.90
46492;DHT22;32206;51.446;6.792;2022-12-07T10:16:54;6.00;99.90
46492;DHT22;32206;51.446;6.792;2022-12-07T10:19:31;6.10;99.90
46492;DHT22;32206;51.446;6.792;2022-12-07T10:22:14;6.10;99.90
46492;DHT22;32206;51.446;6.792;2022-12-07T10:24:41;6.20;99.90
46492;DHT22;32206;51.446;6.792;2022-12-07T10:27:19;6.20;99.90
46492;DHT22;32206;51.446;6.792;2022-12-07T10:29:51;6.30;99.90
46492;DHT22;32206;51.446;6.792;2022-12-07T10:34:43;6.40;99.70
46492;DHT22;32206;51.446;6.792;2022-12-07T10:39:53;6.40;99.90
46492;DHT22;32206;51.446;6.792;2022-12-07T10:44:44;6.20;99.90
46492;DHT22;32206;51.446;6.792;2022-12-07T10:52:56;6.30;99.90
46492;DHT22;32206;51.446;6.792;2022-12-07T11:04:10;6.40;99.10
46492;DHT22;32206;51.446;6.792;2022-12-07T11:17:53;6.30;99.90
46492;DHT22;32206;51.446;6.792;2022-12-07T11:29:12;6.50;97.70
46492;DHT22;32206;51.446;6.792;2022-12-07T11:31:52;6.50;97.30
46492;DHT22;32206;51.446;6.792;2022-12-07T11:34:27;6.60;97.70
46492;DHT22;32206;51.446;6.792;2022-12-07T11:36:56;6.50;97.20
46492;DHT22;32206;51.446;6.792;2022-12-07T11:39:25;6.60;96.90
46492;DHT22;32206;51.446;6.792;2022-12-07T11:41:57;6.60;96.30
46492;DHT22;32206;51.446;6.792;2022-12-07T11:45:15;6.90;95.70
46492;DHT22;32206;51.446;6.792;2022-12-07T11:47:41;6.70;97.10
46492;DHT22;32206;51.446;6.792;2022-12-07T11:56:00;7.30;96.10
46492;DHT22;32206;51.446;6.792;2022-12-07T12:04:30;6.70;95.10
46492;DHT22;32206;51.446;6.792;2022-12-07T12:06:28;6.70;94.60
46492;DHT22;32206;51.446;6.792;2022-12-07T12:09:15;6.60;95.90
46492;DHT22;32206;51.446;6.792;2022-12-07T12:11:55;6.50;97.90
46492;DHT22;32206;51.446;6.792;2022-12-07T12:20:24;6.40;98.40
46492;DHT22;32206;51.446;6.792;2022-12-07T12:25:59;6.60;97.90
46492;DHT22;32206;51.446;6.792;2022-12-07T12:31:38;6.60;98.00
46492;DHT22;32206;51.446;6.792;2022-12-07T12:42:49;6.70;97.50
46492;DHT22;32206;51.446;6.792;2022-12-07T12:45:20;6.60;98.20
46492;DHT22;32206;51.446;6.792;2022-12-07T12:50:33;6.70;97.60
46492;DHT22;32206;51.446;6.792;2022-12-07T13:00:47;6.70;96.70
46492;DHT22;32206;51.446;6.792;2022-12-07T13:03:24;6.70;95.00
46492;DHT22;32206;51.446;6.792;2022-12-07T13:08:42;6.60;94.60
46492;DHT22;32206;51.446;6.792;2022-12-07T13:11:29;6.50;96.10
46492;DHT22;32206;51.446;6.792;2022-12-07T13:17:11;6.50;96.70
46492;DHT22;32206;51.446;6.792;2022-12-07T13:25:19;6.60;96.20
46492;DHT22;32206;51.446;6.792;2022-12-07T13:28:10;6.50;97.60
46492;DHT22;32206;51.446;6.792;2022-12-07T13:30:47;6.60;97.30
46492;DHT22;32206;51.446;6.792;2022-12-07T13:33:17;6.60;97.10
46492;DHT22;32206;51.446;6.792;2022-12-07T13:35:43;6.60;97.50
46492;DHT22;32206;51.446;6.792;2022-12-07T13:38:29;6.70;97.10
46492;DHT22;32206;51.446;6.792;2022-12-07T13:44:14;6.60;97.50
46492;DHT22;32206;51.446;6.792;2022-12-07T13:47:13;6.50;96.80
46492;DHT22;32206;51.446;6.792;2022-12-07T13:49:52;6.50;96.90
46492;DHT22;32206;51.446;6.792;2022-12-07T13:52:29;6.50;96.20
46492;DHT22;32206;51.446;6.792;2022-12-07T13:57:24;6.60;96.90
46492;DHT22;32206;51.446;6.792;2022-12-07T13:59:51;6.60;96.50
46492;DHT22;32206;51.446;6.792;2022-12-07T14:02:22;6.70;96.20
46492;DHT22;32206;51.446;6.792;2022-12-07T14:04:50;6.80;95.10
46492;DHT22;32206;51.446;6.792;2022-12-07T14:10:04;6.80;93.10
46492;DHT22;32206;51.446;6.792;2022-12-07T14:12:31;6.80;94.40
46492;DHT22;32206;51.446;6.792;2022-12-07T14:14:58;6.80;94.40
46492;DHT22;32206;51.446;6.792;2022-12-07T14:17:26;7.00;93.60
46492;DHT22;32206;51.446;6.792;2022-12-07T14:19:58;7.20;93.40
46492;DHT22;32206;51.446;6.792;2022-12-07T14:22:32;6.90;93.50
46492;DHT22;32206;51.446;6.792;2022-12-07T14:27:39;6.90;93.30
46492;DHT22;32206;51.446;6.792;2022-12-07T14:30:05;6.90;92.50
46492;DHT22;32206;51.446;6.792;2022-12-07T14:32:34;6.80;92.30
46492;DHT22;32206;51.446;6.792;2022-12-07T14:35:18;6.60;93.90
46492;DHT22;32206;51.446;6.792;2022-12-07T14:37:45;6.60;95.10
46492;DHT22;32206;51.446;6.792;2022-12-07T14:40:22;6.60;95.70
46492;DHT22;32206;51.446;6.792;2022-12-07T14:42:51;6.50;95.20
46492;DHT22;32206;51.446;6.792;2022-12-07T14:45:21;6.70;95.80
46492;DHT22;32206;51.446;6.792;2022-12-07T14:47:47;6.40;95.60
46492;DHT22;32206;51.446;6.792;2022-12-07T14:50:15;6.30;96.40
46492;DHT22;32206;51.446;6.792;2022-12-07T14:52:43;6.30;96.80
46492;DHT22;32206;51.446;6.792;2022-12-07T14:55:16;6.20;97.40
46492;DHT22;32206;51.446;6.792;2022-12-07T14:57:43;6.20;97.80
46492;DHT22;32206;51.446;6.792;2022-12-07T15:00:13;6.20;98.00
46492;DHT22;32206;51.446;6.792;2022-12-07T15:02:39;6.20;98.50
46492;DHT22;32206;51.446;6.792;2022-12-07T15:05:05;6.10;98.50
46492;DHT22;32206;51.446;6.792;2022-12-07T15:07:31;6.10;98.50
46492;DHT22;32206;51.446;6.792;2022-12-07T15:09:56;6.00;98.90
46492;DHT22;32206;51.446;6.792;2022-12-07T15:12:22;6.00;99.20
46492;DHT22;32206;51.446;6.792;2022-12-07T15:14:50;6.00;99.30
46492;DHT22;32206;51.446;6.792;2022-12-07T15:17:15;5.90;99.90
46492;DHT22;32206;51.446;6.792;2022-12-07T15:19:41;5.90;99.90
46492;DHT22;32206;51.446;6.792;2022-12-07T15:22:08;5.90;99.90
46492;DHT22;32206;51.446;6.792;2022-12-07T15:24:33;5.80;99.90
46492;DHT22;32206;51.446;6.792;2022-12-07T15:26:59;5.80;99.90
46492;DHT22;32206;51.446;6.792;2022-12-07T15:29:25;5.70;99.90
46492;DHT22;32206;51.446;6.792;2022-12-07T15:31:51;5.90;99.90
46492;DHT22;32206;51.446;6.792;2022-12-07T15:34:17;5.70;99.90
46492;DHT22;32206;51.446;6.792;2022-12-07T15:36:43;5.60;99.90
46492;DHT22;32206;51.446;6.792;2022-12-07T15:39:09;5.60;99.90
46492;DHT22;32206;51.446;6.792;2022-12-07T15:41:35;5.60;99.90
46492;DHT22;32206;51.446;6.792;2022-12-07T15:44:01;5.60;99.90
46492;DHT22;32206;51.446;6.792;2022-12-07T15:46:45;5.60;99.90
46492;DHT22;32206;51.446;6.792;2022-12-07T15:49:14;5.50;99.90
46492;DHT22;32206;51.446;6.792;2022-12-07T15:51:41;5.50;99.90
46492;DHT22;32206;51.446;6.792;2022-12-07T15:54:07;5.90;99.90
46492;DHT22;32206;51.446;6.792;2022-12-07T15:56:34;5.50;99.90
46492;DHT22;32206;51.446;6.792;2022-12-07T15:58:59;5.50;99.90
46492;DHT22;32206;51.446;6.792;2022-12-07T16:01:25;5.50;99.90
46492;DHT22;32206;51.446;6.792;2022-12-07T16:03:50;5.50;99.90
46492;DHT22;32206;51.446;6.792;2022-12-07T16:06:17;5.50;99.90
46492;DHT22;32206;51.446;6.792;2022-12-07T16:08:44;5.50;99.90
46492;DHT22;32206;51.446;6.792;2022-12-07T16:11:10;5.80;99.90
46492;DHT22;32206;51.446;6.792;2022-12-07T16:13:36;5.60;99.90
46492;DHT22;32206;51.446;6.792;2022-12-07T16:16:04;5.60;99.90
46492;DHT22;32206;51.446;6.792;2022-12-07T16:18:30;5.60;99.90
46492;DHT22;32206;51.446;6.792;2022-12-07T16:20:55;5.70;99.90
46492;DHT22;32206;51.446;6.792;2022-12-07T16:23:21;5.50;99.90
46492;DHT22;32206;51.446;6.792;2022-12-07T16:25:46;5.50;99.90
46492;DHT22;32206;51.446;6.792;2022-12-07T16:28:12;5.50;99.90
46492;DHT22;32206;51.446;6.792;2022-12-07T16:30:37;5.60;99.90
46492;DHT22;32206;51.446;6.792;2022-12-07T16:33:03;5.50;99.90
46492;DHT22;32206;51.446;6.792;2022-12-07T16:35:28;5.50;99.90
46492;DHT22;32206;51.446;6.792;2022-12-07T16:37:54;5.70;99.90
46492;DHT22;32206;51.446;6.792;2022-12-07T16:40:20;5.50;99.90
46492;DHT22;32206;51.446;6.792;2022-12-07T16:42:45;5.50;99.90
46492;DHT22;32206;51.446;6.792;2022-12-07T16:45:11;5.60;99.90
46492;DHT22;32206;51.446;6.792;2022-12-07T16:47:38;5.60;99.90
46492;DHT22;32206;51.446;6.792;2022-12-07T16:50:04;5.50;99.90
46492;DHT22;32206;51.446;6.792;2022-12-07T16:52:29;5.50;99.90
46492;DHT22;32206;51.446;6.792;2022-12-07T16:54:55;5.60;99.90
46492;DHT22;32206;51.446;6.792;2022-12-07T16:57:21;5.50;99.90
46492;DHT22;32206;51.446;6.792;2022-12-07T16:59:46;5.50;99.90
46492;DHT22;32206;51.446;6.792;2022-12-07T17:02:12;5.50;99.90
46492;DHT22;32206;51.446;6.792;2022-12-07T17:04:37;5.50;99.90
46492;DHT22;32206;51.446;6.792;2022-12-07T17:07:08;5.50;99.90
46492;DHT22;32206;51.446;6.792;2022-12-07T17:09:34;5.50;99.90
46492;DHT22;32206;51.446;6.792;2022-12-07T17:12:00;5.40;99.90
46492;DHT22;32206;51.446;6.792;2022-12-07T17:14:26;5.40;99.90
46492;DHT22;32206;51.446;6.792;2022-12-07T17:17:10;5.40;99.90
46492;DHT22;32206;51.446;6.792;2022-12-07T17:19:36;5.40;99.90
46492;DHT22;32206;51.446;6.792;2022-12-07T17:22:02;5.40;99.90
46492;DHT22;32206;51.446;6.792;2022-12-07T17:24:27;5.40;99.90
46492;DHT22;32206;51.446;6.792;2022-12-07T17:26:53;5.40;99.90
46492;DHT22;32206;51.446;6.792;2022-12-07T17:29:19;5.30;99.90
46492;DHT22;32206;51.446;6.792;2022-12-07T17:31:46;5.40;99.90
46492;DHT22;32206;51.446;6.792;2022-12-07T17:34:13;5.40;99.90
46492;DHT22;32206;51.446;6.792;2022-12-07T17:36:39;5.40;99.90
46492;DHT22;32206;51.446;6.792;2022-12-07T17:39:11;5.30;99.90
46492;DHT22;32206;51.446;6.792;2022-12-07T17:41:37;5.30;99.90
46492;DHT22;32206;51.446;6.792;2022-12-07T17:44:22;5.30;99.90
46492;DHT22;32206;51.446;6.792;2022-12-07T17:46:49;5.80;99.90
46492;DHT22;32206;51.446;6.792;2022-12-07T17:49:20;5.30;99.90
46492;DHT22;32206;51.446;6.792;2022-12-07T17:51:45;5.30;99.90
46492;DHT22;32206;51.446;6.792;2022-12-07T17:54:29;5.20;99.90
46492;DHT22;32206;51.446;6.792;2022-12-07T17:56:55;5.20;99.90
46492;DHT22;32206;51.446;6.792;2022-12-07T17:59:20;5.30;99.90
46492;DHT22;32206;51.446;6.792;2022-12-07T18:01:46;5.20;99.90
46492;DHT22;32206;51.446;6.792;2022-12-07T18:04:12;5.70;99.90
46492;DHT22;32206;51.446;6.792;2022-12-07T18:06:37;5.20;99.90
46492;DHT22;32206;51.446;6.792;2022-12-07T18:09:03;5.20;99.90
46492;DHT22;32206;51.446;6.792;2022-12-07T18:11:30;5.20;99.90
46492;DHT22;32206;51.446;6.792;2022-12-07T18:13:55;5.10;99.90
46492;DHT22;32206;51.446;6.792;2022-12-07T18:16:23;5.10;99.90
46492;DHT22;32206;51.446;6.792;2022-12-07T18:18:50;5.10;99.90
46492;DHT22;32206;51.446;6.792;2022-12-07T18:21:21;5.20;99.90